• Join FlightAware (Why Join?)
  • Login
  • US Flag 
11:57PM EDT


 

Airport Tracker/Info


-or-


 

Live Flight TrackerFlight Track Log ✈ AAL963 ✈ 26-Jul-2013 ✈ KDFW - SBGR / GRU

Flight Track Log - Related Links

Times and Time Zones

All times are in EDT time to prevent confusion due to time zone crossing. See the AAL963 flight status page for this flight to view local times or setup timezone preferences in your user account.

Time Position Orientation Groundspeed Altitude Reporting Facility
EDT Latitude Longitude Course Direction KTS MPH feet Rate Location/Type
09:55PM 32.9270 -97.0520 357° North 178 205 1,800  Level FlightAware
09:55PM 32.9510 -97.0570 350° North 192 221 2,500 1,020 Climbing FlightAware
09:56PM 32.9760 -97.0670 341° North 227 261 2,800 1,080 Climbing FlightAware
09:56PM 33.0060 -97.0850 333° Northwest 246 283 3,600 1,620 Climbing FlightAware
09:56PM 33.0120 -97.0970 301° West 254 292 3,900 1,740 Climbing FlightAware
09:57PM 33.0150 -97.1140 282° West 258 297 4,300 2,220 Climbing FlightAware
09:57PM 33.0080 -97.1560 259° West 261 300 5,600 2,400 Climbing FlightAware
09:57PM 32.9980 -97.1930 252° West 268 308 6,600 1,920 Climbing FlightAware
09:58PM 32.9840 -97.2060 218° Southwest 280 322 6,900 1,560 Climbing FlightAware
09:58PM 32.9680 -97.2110 195° South 290 334 7,300 2,280 Climbing FlightAware
09:58PM 32.9280 -97.2050 173° South 292 336 8,500 2,160 Climbing FlightAware
09:59PM 32.9060 -97.2000 169° South 296 341 9,000 1,860 Climbing FlightAware
09:59PM 32.8710 -97.1930 170° South 301 346 9,800 1,020 Climbing FlightAware
10:00PM 32.7980 -97.1800 171° South 315 362 10,400 1,140 Climbing FlightAware
10:01PM 32.7100 -97.1690 174° South 373 429 11,800 1,560 Climbing FlightAware
10:02PM 32.6330 -97.1550 171° South 393 452 12,800 1,500 Climbing FlightAware
10:02PM 32.5520 -97.1380 170° South 409 471 14,000 1,560 Climbing FlightAware
10:03PM 32.4900 -97.0870 145° Southeast 423 487 15,000 1,860 Climbing FlightAware
10:04PM 32.4310 -97.0250 138° Southeast 422 486 16,500 1,920 Climbing FlightAware
10:04PM 32.3960 -96.9860 137° Southeast 428 493 17,100 1,560 Climbing FlightAware
10:05PM 32.3540 -96.9060 122° Southeast 434 499 18,200 1,500 Climbing FlightAware
10:06PM 32.3022 -96.8058 121° Southeast 448 516 19,400 1,200 Climbing FlightAware ADS-B
10:06PM 32.2680 -96.7390 121° Southeast 462 532 19,800 960 Climbing FlightAware
10:06PM 32.2494 -96.7028 121° Southeast 465 535 20,200 1,500 Climbing FlightAware ADS-B
10:07PM 32.2145 -96.6351 121° Southeast 468 539 21,000 1,440 Climbing FlightAware ADS-B
10:07PM 32.1797 -96.5687 122° Southeast 472 543 21,700 1,380 Climbing FlightAware ADS-B
10:08PM 32.1463 -96.5072 123° Southeast 476 548 22,400 1,440 Climbing FlightAware ADS-B
10:08PM 32.1082 -96.4361 122° Southeast 478 550 23,200 1,260 Climbing FlightAware ADS-B
10:09PM 32.0505 -96.3285 122° Southeast 483 556 24,100 1,080 Climbing FlightAware ADS-B
10:10PM 32.0113 -96.2617 125° Southeast 491 565 24,700 1,080 Climbing FlightAware ADS-B
10:10PM 31.9705 -96.1967 126° Southeast 495 570 25,200 960 Climbing FlightAware ADS-B
10:11PM 31.9294 -96.1303 126° Southeast 500 575 25,700 900 Climbing FlightAware ADS-B
10:12PM 31.8548 -96.0108 127° Southeast 509 586 26,500 900 Climbing FlightAware ADS-B
10:13PM 31.7438 -95.8854 140° Southeast 519 597 27,600 900 Climbing FlightAware ADS-B
10:13PM 31.6865 -95.8325 142° Southeast 521 600 28,000 1,080 Climbing FlightAware ADS-B
10:14PM 31.5978 -95.7512 142° Southeast 520 598 29,000 1,860 Climbing FlightAware ADS-B
10:15PM 31.5210 -95.6810 142° Southeast 489 563 30,800 1,680 Climbing FlightAware
10:16PM 31.4221 -95.5903 142° Southeast 487 560 31,800 900 Climbing FlightAware ADS-B
10:17PM 31.3147 -95.4921 142° Southeast 488 562 32,600 420 Climbing FlightAware ADS-B
10:18PM 31.1490 -95.3410 142° Southeast 497 572 33,000 120 Climbing FlightAware ADS-B
10:19PM 31.0380 -95.2403 142° Southeast 500 575 33,000  Level FlightAware ADS-B
10:20PM 30.9818 -95.1894 142° Southeast 499 574 33,000  Level FlightAware ADS-B
10:20PM 30.9267 -95.1397 142° Southeast 499 574 33,000  Level FlightAware ADS-B
10:22PM 30.6939 -94.9299 142° Southeast 500 575 33,000  Level FlightAware ADS-B
10:24PM 30.4673 -94.7271 142° Southeast 514 592 33,000  Level FlightAware ADS-B
10:25PM 30.4099 -94.6760 142° Southeast 515 593 33,000  Level FlightAware ADS-B
10:26PM 30.2955 -94.5742 142° Southeast 518 596 33,000  Level FlightAware ADS-B
10:26PM 30.2376 -94.5229 143° Southeast 519 597 33,000  Level FlightAware ADS-B
10:27PM 30.1796 -94.4715 143° Southeast 520 598 33,000  Level FlightAware ADS-B
10:27PM 30.1224 -94.4209 143° Southeast 520 598 33,000  Level FlightAware ADS-B
10:28PM 30.0639 -94.3699 143° Southeast 522 601 33,000  Level FlightAware ADS-B
10:28PM 30.0052 -94.3191 143° Southeast 522 601 33,000  Level FlightAware ADS-B
10:29PM 29.8883 -94.2180 143° Southeast 523 602 33,000  Level FlightAware ADS-B
10:30PM 29.7710 -94.1168 143° Southeast 522 601 33,000  Level FlightAware ADS-B
10:31PM 29.7109 -94.0650 143° Southeast 522 601 33,000  Level FlightAware ADS-B
10:31PM 29.6519 -94.0143 143° Southeast 521 600 33,000  Level FlightAware ADS-B
10:32PM 29.5853 -93.9569 143° Southeast 521 600 33,000  Level FlightAware ADS-B
10:32PM 29.5269 -93.9069 143° Southeast 522 601 33,000  Level FlightAware ADS-B
10:33PM 29.4675 -93.8560 143° Southeast 521 600 33,000  Level FlightAware ADS-B
10:34PM 29.3977 -93.7964 143° Southeast 521 600 33,000  Level FlightAware ADS-B
10:34PM 29.3386 -93.7460 143° Southeast 520 598 33,000  Level FlightAware ADS-B
10:35PM 29.2782 -93.6945 143° Southeast 519 597 33,000  Level FlightAware ADS-B
10:35PM 29.2190 -93.6441 143° Southeast 517 595 33,000  Level FlightAware ADS-B
10:36PM 29.1605 -93.5945 143° Southeast 518 596 33,000  Level FlightAware ADS-B
10:36PM 29.1015 -93.5444 143° Southeast 517 595 33,000  Level FlightAware ADS-B
10:37PM 29.0404 -93.4926 143° Southeast 517 595 33,000  Level FlightAware ADS-B
10:37PM 28.9749 -93.4372 143° Southeast 517 595 33,000  Level FlightAware ADS-B
10:38PM 28.9172 -93.3885 144° Southeast 515 593 33,000 -60 Level FlightAware ADS-B
10:39PM 28.8039 -93.2931 144° Southeast 512 589 32,900  Descending Houston Center
10:40PM 28.6894 -93.1972 144° Southeast 511 588 33,000  Climbing Houston Center
10:41PM 28.5753 -93.0992 143° Southeast 512 589 32,900 -60 Descending Houston Center
10:42PM 28.4378 -92.9861 144° Southeast 512 589 32,900  Level Houston Center
10:43PM 28.3228 -92.8886 143° Southeast 513 590 32,900  Level Houston Center
10:44PM 28.2072 -92.7933 144° Southeast 514 592 33,000  Climbing Houston Center
10:45PM 28.0919 -92.6972 144° Southeast 516 594 32,900  Descending Houston Center
10:50PM 27.4780 -92.1949 144° Southeast 511 588 33,000  Climbing FlightAware ADS-B
10:51PM 27.4163 -92.1447 144° Southeast 510 587 33,000  Level FlightAware ADS-B
10:52PM 27.2625 -92.0217 144° Southeast 509 586 33,000 -60 Level Houston Center
10:53PM 27.1483 -91.9283 144° Southeast 508 585 32,900 -60 Descending Houston Center
10:54PM 27.0336 -91.8358 144° Southeast 509 586 32,900  Level Houston Center
10:55PM 26.9197 -91.7428 144° Southeast 507 583 33,000  Climbing Houston Center
10:56PM 26.8053 -91.6514 145° Southeast 505 581 32,900  Descending Houston Center
10:57PM 26.6892 -91.5597 145° Southeast 501 577 33,000  Climbing Houston Center
10:58PM 26.5669 -91.4628 145° Southeast 499 574 32,900  Descending Houston Center
10:59PM 26.4744 -91.3911 145° Southeast 497 572 33,000  Climbing Houston Center
11:01PM 26.3454 -91.2798 145° Southeast  Level FlightAware Approximate
11:08PM 25.5659 -90.6738 145° Southeast  Level FlightAware Approximate
11:09PM 25.4548 -90.5871 145° Southeast  Level FlightAware Approximate
11:10PM 25.3437 -90.5005 145° Southeast  Level FlightAware Approximate
11:11PM 25.2325 -90.4142 145° Southeast  Level FlightAware Approximate
11:12PM 25.1213 -90.3280 145° Southeast  Level FlightAware Approximate
11:13PM 25.0100 -90.2419 145° Southeast  Level FlightAware Approximate
11:14PM 24.8986 -90.1560 145° Southeast  Level FlightAware Approximate
11:15PM 24.7873 -90.0703 145° Southeast  Level FlightAware Approximate
11:16PM 24.6758 -89.9847 145° Southeast  Level FlightAware Approximate
11:17PM 24.5644 -89.8992 145° Southeast  Level FlightAware Approximate
11:18PM 24.4546 -89.8115 145° Southeast  Level FlightAware Approximate
11:19PM 24.3429 -89.7266 145° Southeast  Level FlightAware Approximate
11:20PM 24.2311 -89.6418 145° Southeast  Level FlightAware Approximate
11:21PM 24.1193 -89.5572 145° Southeast  Level FlightAware Approximate
11:22PM 24.0074 -89.4728 145° Southeast  Level FlightAware Approximate
11:23PM 23.8955 -89.3885 145° Southeast  Level FlightAware Approximate
11:23PM 23.7510 -89.2870 145° Southeast 486 559 33,000  Level FlightAware
11:24PM 23.6920 -89.2410 144° Southeast 486 559 33,000  Level FlightAware
11:25PM 23.5980 -89.1700 145° Southeast 486 559 33,000  Level FlightAware
11:25PM 23.4940 -89.0940 146° Southeast 488 562 33,000  Level FlightAware
11:26PM 23.4100 -89.0310 145° Southeast 488 562 33,000  Level FlightAware
11:27PM 23.3520 -88.9870 145° Southeast 488 562 33,000  Level FlightAware
11:27PM 23.2750 -88.9280 145° Southeast 488 562 33,000  Level FlightAware
11:28PM 23.2180 -88.8850 145° Southeast 488 562 33,000  Level FlightAware
11:29PM 23.1250 -88.8180 146° Southeast 487 560 33,000  Level FlightAware
11:30PM 23.0480 -88.7590 145° Southeast 487 560 33,000  Level FlightAware
11:30PM 22.9420 -88.6830 147° Southeast 485 558 33,000  Level FlightAware
11:31PM 22.8520 -88.6160 146° Southeast 484 557 33,000  Level FlightAware
11:32PM 22.7490 -88.5400 146° Southeast 484 557 33,000  Level FlightAware
11:33PM 22.6560 -88.4720 146° Southeast 487 560 33,000  Level FlightAware
11:34PM 22.5790 -88.4100 143° Southeast 489 563 33,000  Level FlightAware
11:34PM 22.5130 -88.3440 137° Southeast 488 562 33,000  Level FlightAware
11:35PM 22.4590 -88.2870 136° Southeast 488 562 33,000  Level FlightAware
11:36PM 22.3680 -88.1940 137° Southeast 488 562 33,000  Level FlightAware
11:36PM 22.3180 -88.1420 136° Southeast 488 562 33,000  Level FlightAware
11:37PM 22.2680 -88.0910 137° Southeast 488 562 33,000  Level FlightAware
11:38PM 22.1730 -87.9980 138° Southeast 490 564 33,000  Level FlightAware
11:38PM 22.1170 -87.9420 137° Southeast 491 565 33,000  Level FlightAware
11:39PM 22.0420 -87.8670 137° Southeast 492 566 33,000  Level FlightAware
11:40PM 21.9740 -87.7980 137° Southeast 493 567 33,000  Level FlightAware
11:41PM 21.8910 -87.7140 137° Southeast 493 567 33,000  Level FlightAware
11:41PM 21.8290 -87.6520 137° Southeast 493 567 33,000  Level FlightAware
11:42PM 21.7660 -87.5900 138° Southeast 493 567 33,000  Level FlightAware
11:42PM 21.7010 -87.5250 137° Southeast 494 568 33,000  Level FlightAware
11:43PM 21.6430 -87.4680 138° Southeast 493 567 33,000  Level FlightAware
11:44PM 21.5210 -87.3460 137° Southeast 493 567 33,000  Level FlightAware
11:45PM 21.4420 -87.2690 138° Southeast 493 567 33,000  Level FlightAware
11:46PM 21.3730 -87.2010 137° Southeast 494 568 33,000  Level FlightAware
11:46PM 21.3120 -87.1410 137° Southeast 496 571 33,000  Level FlightAware
11:47PM 21.2360 -87.0660 137° Southeast 498 573 33,000  Level FlightAware
11:48PM 21.1690 -87.0000 137° Southeast 499 574 33,000  Level FlightAware
11:48PM 21.0930 -86.9260 138° Southeast 499 574 33,000  Level FlightAware
11:49PM 21.0250 -86.8590 137° Southeast 500 575 33,000  Level FlightAware
11:50PM 20.9510 -86.7870 138° Southeast 501 577 33,000  Level FlightAware
11:50PM 20.8810 -86.7190 138° Southeast 502 578 33,000  Level FlightAware
11:51PM 20.8200 -86.6590 137° Southeast 503 579 33,000  Level FlightAware
11:52PM 20.7490 -86.5910 138° Southeast 504 580 33,000  Level FlightAware
11:52PM 20.6740 -86.5180 138° Southeast 506 582 33,000  Level FlightAware
11:53PM 20.5990 -86.4460 138° Southeast 509 586 33,000  Level FlightAware
11:54PM 20.5300 -86.3790 138° Southeast 511 588 33,000  Level FlightAware
11:54PM 20.4740 -86.3240 137° Southeast 511 588 33,000  Level FlightAware
11:55PM 20.4030 -86.2540 137° Southeast 511 588 33,000  Level FlightAware
11:56PM 20.3500 -86.2010 137° Southeast 511 588 33,000  Level FlightAware
11:56PM 20.2980 -86.1480 136° Southeast 511 588 33,000  Level FlightAware
11:57PM 20.1690 -86.0320 140° Southeast 514 592 33,000  Level FlightAware
11:58PM 20.0970 -85.9640 138° Southeast 516 594 33,000  Level FlightAware
11:58PM 20.0310 -85.9000 138° Southeast 516 594 33,000  Level FlightAware
11:59PM 19.9600 -85.8330 138° Southeast 515 593 33,000  Level FlightAware
12:00AM 19.8880 -85.7650 138° Southeast 515 593 33,000  Level FlightAware
12:01AM 19.8100 -85.6910 138° Southeast 514 592 33,000  Level FlightAware
12:01AM 19.7320 -85.6180 139° Southeast 514 592 33,000  Level FlightAware
12:02AM 19.6530 -85.5430 138° Southeast 513 590 33,000  Level FlightAware
12:03AM 19.5600 -85.4560 139° Southeast 513 590 33,000  Level FlightAware
12:04AM 19.4740 -85.3760 139° Southeast 512 589 33,000  Level FlightAware
12:04AM 19.3980 -85.3050 139° Southeast 512 589 33,000  Level FlightAware
12:05AM 19.3360 -85.2470 139° Southeast 512 589 33,000  Level FlightAware
12:06AM 19.2740 -85.1880 138° Southeast 512 589 33,000  Level FlightAware
12:06AM 19.2200 -85.1370 138° Southeast 512 589 33,000  Level FlightAware
12:07AM 19.1510 -85.0710 138° Southeast 512 589 33,000  Level FlightAware
12:08AM 19.0790 -85.0030 138° Southeast 512 589 33,000  Level FlightAware
12:08AM 19.0260 -84.9520 138° Southeast 512 589 33,000  Level FlightAware
12:09AM 18.9520 -84.8820 138° Southeast 512 589 33,000  Level FlightAware
12:10AM 18.8980 -84.8300 138° Southeast 512 589 33,000  Level FlightAware
12:10AM 18.8430 -84.7780 138° Southeast 512 589 33,000  Level FlightAware
12:11AM 18.7880 -84.7250 138° Southeast 512 589 33,000  Level FlightAware
12:12AM 18.7160 -84.6570 138° Southeast 512 589 33,000  Level FlightAware
12:12AM 18.6620 -84.6060 138° Southeast 512 589 33,000  Level FlightAware
12:13AM 18.6080 -84.5540 138° Southeast 512 589 33,000  Level FlightAware
12:14AM 18.5360 -84.4860 138° Southeast 512 589 33,000  Level FlightAware
12:14AM 18.4820 -84.4350 138° Southeast 512 589 33,000  Level FlightAware
12:17AM 18.2813 -84.2384 137° Southeast  Level Estimated
12:18AM 18.1817 -84.1411 137° Southeast  Level Estimated
12:19AM 18.0821 -84.0439 137° Southeast  Level Estimated
12:20AM 17.9824 -83.9468 137° Southeast  Level Estimated
12:21AM 17.8827 -83.8498 137° Southeast  Level Estimated
12:22AM 17.7829 -83.7529 137° Southeast  Level Estimated
12:23AM 17.6831 -83.6561 137° Southeast  Level Estimated
12:24AM 17.5833 -83.5595 137° Southeast  Level Estimated
12:25AM 17.4833 -83.4629 137° Southeast  Level Estimated
12:26AM 17.3834 -83.3665 137° Southeast  Level Estimated
12:27AM 17.2834 -83.2701 137° Southeast  Level Estimated
12:28AM 17.1833 -83.1739 137° Southeast  Level Estimated
12:29AM 17.0832 -83.0777 137° Southeast  Level Estimated
12:30AM 16.9830 -82.9817 137° Southeast  Level Estimated
12:31AM 16.8829 -82.8858 137° Southeast  Level Estimated
12:32AM 16.7826 -82.7899 138° Southeast  Level Estimated
12:33AM 16.6823 -82.6942 138° Southeast  Level Estimated
12:34AM 16.5820 -82.5986 138° Southeast  Level Estimated
12:35AM 16.4816 -82.5031 138° Southeast  Level Estimated
12:36AM 16.3812 -82.4076 138° Southeast  Level Estimated
12:37AM 16.2808 -82.3123 138° Southeast  Level Estimated
12:38AM 16.1803 -82.2171 138° Southeast  Level Estimated
12:39AM 16.0798 -82.1219 138° Southeast  Level Estimated
12:40AM 15.9792 -82.0269 138° Southeast  Level Estimated
12:41AM 15.8785 -81.9320 138° Southeast  Level Estimated
12:42AM 15.7779 -81.8371 138° Southeast  Level Estimated
12:43AM 15.6772 -81.7423 138° Southeast  Level Estimated
12:44AM 15.5764 -81.6477 138° Southeast  Level Estimated
12:45AM 15.4756 -81.5531 138° Southeast  Level Estimated
12:46AM 15.3748 -81.4586 138° Southeast  Level Estimated
12:47AM 15.2739 -81.3643 138° Southeast  Level Estimated
12:48AM 15.1730 -81.2700 138° Southeast  Level Estimated
12:49AM 15.0721 -81.1758 138° Southeast  Level Estimated
12:50AM 14.9711 -81.0816 138° Southeast  Level Estimated
12:51AM 14.8701 -80.9876 138° Southeast  Level Estimated
12:52AM 14.7690 -80.8937 138° Southeast  Level Estimated
12:53AM 14.6679 -80.7998 138° Southeast  Level Estimated
12:54AM 14.5668 -80.7061 138° Southeast  Level Estimated
12:55AM 14.4676 -80.6142 138° Southeast  Level Estimated
12:56AM 14.3684 -80.5225 138° Southeast  Level Estimated
12:57AM 14.2692 -80.4308 138° Southeast  Level Estimated
12:58AM 14.1699 -80.3392 138° Southeast  Level Estimated
12:59AM 14.0706 -80.2477 138° Southeast  Level Estimated
01:00AM 13.9712 -80.1563 138° Southeast  Level Estimated
01:01AM 13.8718 -80.0649 138° Southeast  Level Estimated
01:02AM 13.7724 -79.9737 138° Southeast  Level Estimated
01:03AM 13.6729 -79.8825 138° Southeast  Level Estimated
01:04AM 13.5735 -79.7914 138° Southeast  Level Estimated
01:05AM 13.4739 -79.7003 138° Southeast  Level Estimated
01:06AM 13.3744 -79.6094 138° Southeast  Level Estimated
01:07AM 13.2748 -79.5185 138° Southeast  Level Estimated
01:08AM 13.1752 -79.4276 138° Southeast  Level Estimated
01:09AM 13.0755 -79.3369 138° Southeast  Level Estimated
01:10AM 12.9758 -79.2462 138° Southeast  Level Estimated
01:11AM 12.8761 -79.1556 138° Southeast  Level Estimated
01:12AM 12.7764 -79.0651 138° Southeast  Level Estimated
01:13AM 12.6766 -78.9747 139° Southeast  Level Estimated
01:14AM 12.5768 -78.8843 139° Southeast  Level Estimated
01:15AM 12.4769 -78.7940 139° Southeast  Level Estimated
01:16AM 12.3771 -78.7037 139° Southeast  Level Estimated
01:17AM 12.2772 -78.6136 139° Southeast  Level Estimated
01:18AM 12.1772 -78.5235 139° Southeast  Level Estimated
01:19AM 12.0773 -78.4334 139° Southeast  Level Estimated
01:20AM 11.9773 -78.3435 139° Southeast  Level Estimated
01:21AM 11.8773 -78.2535 139° Southeast  Level Estimated
01:22AM 11.7773 -78.1637 139° Southeast  Level Estimated
01:23AM 11.6772 -78.0739 139° Southeast  Level Estimated
01:24AM 11.5771 -77.9842 139° Southeast  Level Estimated
01:25AM 11.4770 -77.8946 139° Southeast  Level Estimated
01:26AM 11.3768 -77.8050 139° Southeast  Level Estimated
01:27AM 11.2766 -77.7155 139° Southeast  Level Estimated
01:28AM 11.1764 -77.6260 139° Southeast  Level Estimated
01:29AM 11.0762 -77.5367 139° Southeast  Level Estimated
01:30AM 10.9759 -77.4473 139° Southeast  Level Estimated
01:31AM 10.8756 -77.3580 139° Southeast  Level Estimated
01:32AM 10.7753 -77.2688 139° Southeast  Level Estimated
01:32AM 10.3280 -76.8290 139° Southeast 479 551 35,000  Level FlightAware
01:32AM 10.2740 -76.7790 138° Southeast 479 551 35,000  Level FlightAware
01:33AM 10.6750 -77.1797 139° Southeast  Level Estimated
01:33AM 10.2090 -76.7190 138° Southeast 477 549 35,000  Level FlightAware
01:34AM 10.1220 -76.6640 148° Southeast 480 552 35,000  Level FlightAware
01:34AM 10.0370 -76.6340 161° South 480 552 35,000  Level FlightAware
01:35AM 9.9670 -76.6100 161° South 479 551 35,000  Level FlightAware
01:36AM 9.8800 -76.5800 161° South 478 550 35,000  Level FlightAware
01:36AM 9.7970 -76.5510 161° South 477 549 35,000  Level FlightAware
01:37AM 9.6920 -76.5100 159° South 475 547 35,000  Level FlightAware
01:38AM 9.6020 -76.4700 156° South 475 547 35,000  Level FlightAware
01:39AM 9.5140 -76.4220 152° Southeast 475 547 35,000  Level FlightAware
01:39AM 9.4360 -76.3810 153° Southeast 477 549 35,000  Level FlightAware
01:40AM 9.3610 -76.3400 152° Southeast 477 549 35,000  Level FlightAware
01:41AM 9.2410 -76.2890 157° South 481 554 35,000  Level FlightAware
01:42AM 9.1710 -76.2650 161° South 481 554 35,000  Level FlightAware
01:42AM 9.1060 -76.2420 161° South 481 554 35,000  Level FlightAware
01:43AM 9.0170 -76.2110 161° South 481 554 35,000  Level FlightAware
01:43AM 8.9170 -76.1870 167° South 35,000  Level FlightAware
01:44AM 8.8100 -76.1680 170° South 498 573 35,000  Level FlightAware
01:45AM 8.6860 -76.1510 172° South 498 573 35,000  Level FlightAware
01:46AM 8.5730 -76.1480 178° South 493 567 35,000  Level FlightAware
01:47AM 8.4100 -76.1480 180° South 493 567 35,000  Level FlightAware
01:48AM 8.3200 -76.1520 183° South 492 566 35,000  Level FlightAware
01:48AM 8.2360 -76.1560 183° South 492 566 35,000  Level FlightAware
01:49AM 8.1330 -76.1540 179° South 494 568 35,000  Level FlightAware
01:50AM 8.0330 -76.1400 172° South 495 570 35,000  Level FlightAware
01:51AM 7.9430 -76.1130 163° South 495 570 35,000  Level FlightAware
01:51AM 7.8590 -76.0810 159° South 492 566 35,000 600 Level FlightAware
01:52AM 7.7640 -76.0430 158° South 489 563 35,900 900 Climbing FlightAware
01:53AM 7.6810 -76.0080 157° South 491 565 36,300 720 Climbing FlightAware
01:53AM 7.5960 -75.9730 158° South 490 564 36,900 480 Climbing FlightAware
01:54AM 7.5130 -75.9370 157° South 489 563 37,000 60 Climbing FlightAware
01:55AM 7.4310 -75.8950 153° Southeast 487 560 37,000  Level FlightAware
01:55AM 7.3470 -75.8380 146° Southeast 486 559 37,000  Level FlightAware
01:56AM 7.2760 -75.7820 142° Southeast 487 560 37,000  Level FlightAware
01:57AM 7.2020 -75.7210 141° Southeast 487 560 37,000  Level FlightAware
01:58AM 7.1130 -75.6300 135° Southeast 487 560 37,000  Level FlightAware
01:59AM 7.0430 -75.5510 132° Southeast 486 559 37,000  Level FlightAware
01:59AM 6.9610 -75.4600 132° Southeast 486 559 37,000  Level FlightAware
02:00AM 6.9000 -75.3930 133° Southeast 487 560 37,000  Level FlightAware
02:01AM 6.8320 -75.3180 132° Southeast 488 562 37,000  Level FlightAware
02:02AM 6.7650 -75.2430 132° Southeast 489 563 37,000  Level FlightAware
02:02AM 6.6920 -75.1620 132° Southeast 489 563 37,000  Level FlightAware
02:03AM 6.6450 -75.1100 132° Southeast 489 563 37,000  Level FlightAware
02:04AM 6.5830 -75.0410 132° Southeast 489 563 37,000  Level FlightAware
02:04AM 6.5370 -74.9890 132° Southeast 489 563 37,000  Level FlightAware
02:05AM 6.4740 -74.9190 132° Southeast 489 563 37,000  Level FlightAware
02:06AM 6.4280 -74.8670 132° Southeast 489 563 37,000  Level FlightAware
02:07AM 6.3660 -74.7980 132° Southeast 489 563 37,000  Level FlightAware
02:07AM 6.3180 -74.7450 132° Southeast 489 563 37,000  Level FlightAware
02:08AM 6.2720 -74.6930 132° Southeast 489 563 37,000  Level FlightAware
02:09AM 6.2100 -74.6240 132° Southeast 489 563 37,000  Level FlightAware
02:09AM 5.9930 -74.5220 155° Southeast 494 568 37,000  Level FlightAware
02:10AM 5.9180 -74.4540 138° Southeast 493 567 37,000  Level FlightAware
02:11AM 5.8510 -74.3930 138° Southeast 492 566 37,000  Level FlightAware
02:11AM 5.7860 -74.3330 137° Southeast 493 567 37,000  Level FlightAware
02:12AM 5.7060 -74.2600 138° Southeast 494 568 37,000  Level FlightAware
02:13AM 5.6370 -74.1980 138° Southeast 494 568 37,000  Level FlightAware
02:13AM 5.5660 -74.1340 138° Southeast 493 567 37,000  Level FlightAware
02:14AM 5.5060 -74.0790 138° Southeast 491 565 37,000  Level FlightAware
02:15AM 5.4310 -74.0110 138° Southeast 492 566 37,000  Level FlightAware
02:15AM 5.3660 -73.9520 138° Southeast 492 566 37,000  Level FlightAware
02:16AM 5.2960 -73.8880 138° Southeast 493 567 37,000  Level FlightAware
02:17AM 5.2210 -73.8200 138° Southeast 494 568 37,000  Level FlightAware
02:18AM 5.1500 -73.7560 138° Southeast 494 568 37,000  Level FlightAware
02:18AM 5.0750 -73.6880 138° Southeast 494 568 37,000  Level FlightAware
02:19AM 5.0070 -73.6270 138° Southeast 492 566 37,000  Level FlightAware
02:20AM 4.9330 -73.5600 138° Southeast 492 566 37,000  Level FlightAware
02:20AM 4.8650 -73.4980 138° Southeast 492 566 37,000  Level FlightAware
02:21AM 4.7900 -73.4300 138° Southeast 492 566 37,000  Level FlightAware
02:22AM 4.7230 -73.3700 138° Southeast 493 567 37,000  Level FlightAware
02:22AM 4.6510 -73.3050 138° Southeast 494 568 37,000  Level FlightAware
02:23AM 4.5900 -73.2500 138° Southeast 494 568 37,000  Level FlightAware
02:24AM 4.5160 -73.1820 138° Southeast 495 570 37,000  Level FlightAware
02:24AM 4.4460 -73.1190 138° Southeast 495 570 37,000  Level FlightAware
02:25AM 4.3870 -73.0660 138° Southeast 496 571 37,000  Level FlightAware
02:26AM 4.3240 -73.0070 137° Southeast 496 571 37,000  Level FlightAware
02:26AM 4.2720 -72.9590 137° Southeast 496 571 37,000  Level FlightAware
02:27AM 4.2040 -72.8950 137° Southeast 496 571 37,000  Level FlightAware
02:28AM 4.1530 -72.8470 137° Southeast 496 571 37,000  Level FlightAware
02:28AM 4.0840 -72.7830 137° Southeast 496 571 37,000  Level FlightAware
02:29AM 4.0330 -72.7350 137° Southeast 496 571 37,000  Level FlightAware
02:30AM 3.9130 -72.6230 137° Southeast 496 571 37,000  Level FlightAware
02:31AM 3.8620 -72.5750 137° Southeast 496 571 37,000  Level FlightAware
02:32AM 3.7930 -72.5110 137° Southeast 496 571 37,000  Level FlightAware
02:32AM 3.7420 -72.4630 137° Southeast 496 571 37,000  Level FlightAware
02:33AM 3.6730 -72.3990 137° Southeast 496 571 37,000  Level FlightAware
02:34AM 3.6220 -72.3510 137° Southeast 496 571 37,000  Level FlightAware
02:35AM 3.5540 -72.2870 137° Southeast 496 571 37,000  Level FlightAware
02:37AM 3.3737 -72.1260 138° Southeast  Level Estimated
02:38AM 3.2745 -72.0374 138° Southeast  Level Estimated
02:39AM 3.1752 -71.9488 138° Southeast  Level Estimated
02:40AM 3.0759 -71.8602 138° Southeast  Level Estimated
02:41AM 2.9767 -71.7716 138° Southeast  Level Estimated
02:42AM 2.8774 -71.6831 138° Southeast  Level Estimated
02:43AM 2.7781 -71.5945 138° Southeast  Level Estimated
02:44AM 2.6788 -71.5060 138° Southeast  Level Estimated
02:45AM 2.5795 -71.4175 138° Southeast  Level Estimated
02:46AM 2.4802 -71.3290 138° Southeast  Level Estimated
02:47AM 2.3809 -71.2405 138° Southeast  Level Estimated
02:48AM 2.2816 -71.1521 138° Southeast  Level Estimated
02:49AM 2.1823 -71.0636 138° Southeast  Level Estimated
02:50AM 2.0829 -70.9752 138° Southeast  Level Estimated
02:51AM 1.9836 -70.8867 138° Southeast  Level Estimated
02:52AM 1.8843 -70.7983 138° Southeast  Level Estimated
02:53AM 1.7849 -70.7099 138° Southeast  Level Estimated
02:54AM 1.6856 -70.6215 138° Southeast  Level Estimated
02:55AM 1.5862 -70.5331 138° Southeast  Level Estimated
02:56AM 1.4869 -70.4447 138° Southeast  Level Estimated
02:57AM 1.3875 -70.3564 138° Southeast  Level Estimated
02:58AM 1.2882 -70.2680 138° Southeast  Level Estimated
02:59AM 1.1888 -70.1796 138° Southeast  Level Estimated
03:00AM 1.0894 -70.0913 138° Southeast  Level Estimated
03:01AM 0.9901 -70.0030 138° Southeast  Level Estimated
03:02AM 0.8907 -69.9146 138° Southeast  Level Estimated
03:03AM 0.7913 -69.8263 138° Southeast  Level Estimated
03:04AM 0.6920 -69.7379 138° Southeast  Level Estimated
03:05AM 0.5926 -69.6496 138° Southeast  Level Estimated
03:06AM 0.4932 -69.5613 138° Southeast  Level Estimated
03:07AM 0.3938 -69.4730 138° Southeast  Level Estimated
03:08AM 0.2944 -69.3846 138° Southeast  Level Estimated
03:09AM 0.1951 -69.2963 138° Southeast  Level Estimated
03:10AM 0.0957 -69.2080 138° Southeast  Level Estimated
03:11AM -0.0037 -69.1197 138° Southeast  Level Estimated
03:12AM -0.1031 -69.0314 138° Southeast  Level Estimated
03:13AM -0.2025 -68.9430 138° Southeast  Level Estimated
03:14AM -0.3018 -68.8547 138° Southeast  Level Estimated
03:15AM -0.4012 -68.7664 138° Southeast  Level Estimated
03:16AM -0.5006 -68.6781 138° Southeast  Level Estimated
03:17AM -0.6000 -68.5898 138° Southeast  Level Estimated
03:18AM -0.6994 -68.5014 138° Southeast  Level Estimated
03:19AM -0.7987 -68.4131 138° Southeast  Level Estimated
03:20AM -0.8981 -68.3248 138° Southeast  Level Estimated
03:21AM -0.9975 -68.2364 138° Southeast  Level Estimated
03:22AM -1.0969 -68.1481 138° Southeast  Level Estimated
03:23AM -1.1962 -68.0597 138° Southeast  Level Estimated
03:24AM -1.2956 -67.9714 138° Southeast  Level Estimated
03:25AM -1.3949 -67.8830 138° Southeast  Level Estimated
03:26AM -1.4943 -67.7946 138° Southeast  Level Estimated
03:27AM -1.5936 -67.7062 138° Southeast  Level Estimated
03:28AM -1.6930 -67.6178 138° Southeast  Level Estimated
03:29AM -1.7924 -67.5294 138° Southeast  Level Estimated
03:30AM -1.8917 -67.4410 138° Southeast  Level Estimated
03:31AM -1.9910 -67.3526 138° Southeast  Level Estimated
03:32AM -2.0904 -67.2642 138° Southeast  Level Estimated
03:33AM -2.1897 -67.1757 138° Southeast  Level Estimated
03:34AM -2.2890 -67.0873 138° Southeast  Level Estimated
03:35AM -2.3883 -66.9988 138° Southeast  Level Estimated
03:36AM -2.4876 -66.9103 138° Southeast  Level Estimated
03:37AM -2.5869 -66.8219 138° Southeast  Level Estimated
03:38AM -2.6862 -66.7333 138° Southeast  Level Estimated
03:39AM -2.7855 -66.6448 138° Southeast  Level Estimated
03:40AM -2.8848 -66.5563 138° Southeast  Level Estimated
03:41AM -2.9841 -66.4677 138° Southeast  Level Estimated
03:42AM -3.0834 -66.3792 138° Southeast  Level Estimated
03:43AM -3.1826 -66.2906 138° Southeast  Level Estimated
03:44AM -3.2819 -66.2020 138° Southeast  Level Estimated
03:45AM -3.3811 -66.1134 138° Southeast  Level Estimated
03:46AM -3.4804 -66.0247 138° Southeast  Level Estimated
03:47AM -3.5796 -65.9361 138° Southeast  Level Estimated
03:48AM -3.6788 -65.8474 138° Southeast  Level Estimated
03:49AM -3.7780 -65.7587 138° Southeast  Level Estimated
03:50AM -3.8772 -65.6700 138° Southeast  Level Estimated
03:51AM -3.9764 -65.5813 138° Southeast  Level Estimated
03:52AM -4.0756 -65.4925 138° Southeast  Level Estimated
03:53AM -4.1748 -65.4037 138° Southeast  Level Estimated
03:54AM -4.2740 -65.3149 138° Southeast  Level Estimated
03:55AM -4.3731 -65.2261 138° Southeast  Level Estimated
03:56AM -4.4723 -65.1373 138° Southeast  Level Estimated
03:57AM -4.5714 -65.0484 138° Southeast  Level Estimated
03:58AM -4.6706 -64.9595 138° Southeast  Level Estimated
03:59AM -4.7697 -64.8706 138° Southeast  Level Estimated
04:00AM -4.8688 -64.7816 138° Southeast  Level Estimated
04:01AM -4.9679 -64.6927 138° Southeast  Level Estimated
04:02AM -5.0669 -64.6037 138° Southeast  Level Estimated
04:03AM -5.1660 -64.5146 138° Southeast  Level Estimated
04:04AM -5.2651 -64.4256 138° Southeast  Level Estimated
04:05AM -5.3641 -64.3365 138° Southeast  Level Estimated
04:06AM -5.4631 -64.2474 138° Southeast  Level Estimated
04:07AM -5.5622 -64.1582 138° Southeast  Level Estimated
04:08AM -5.6611 -64.0691 138° Southeast  Level Estimated
04:09AM -5.7601 -63.9799 138° Southeast  Level Estimated
04:10AM -5.8591 -63.8907 138° Southeast  Level Estimated
04:11AM -5.9581 -63.8014 138° Southeast  Level Estimated
04:12AM -6.0570 -63.7121 138° Southeast  Level Estimated
04:13AM -6.1560 -63.6228 138° Southeast  Level Estimated
04:14AM -6.2549 -63.5334 138° Southeast  Level Estimated
04:15AM -6.3538 -63.4440 138° Southeast  Level Estimated
04:16AM -6.4527 -63.3546 138° Southeast  Level Estimated
04:17AM -6.5515 -63.2651 138° Southeast  Level Estimated
04:18AM -6.6504 -63.1756 138° Southeast  Level Estimated
04:19AM -6.7492 -63.0861 138° Southeast  Level Estimated
04:20AM -6.8480 -62.9965 138° Southeast  Level Estimated
04:21AM -6.9468 -62.9069 138° Southeast  Level Estimated
04:22AM -7.0456 -62.8172 138° Southeast  Level Estimated
04:23AM -7.1444 -62.7275 138° Southeast  Level Estimated
04:24AM -7.2432 -62.6378 138° Southeast  Level Estimated
04:25AM -7.3419 -62.5480 138° Southeast  Level Estimated
04:26AM -7.4406 -62.4582 138° Southeast  Level Estimated
04:27AM -7.5393 -62.3684 138° Southeast  Level Estimated
04:28AM -7.6380 -62.2785 138° Southeast  Level Estimated
04:29AM -7.7365 -62.1888 138° Southeast  Level Estimated
04:30AM -7.8350 -62.0989 138° Southeast  Level Estimated
04:31AM -7.9334 -62.0091 138° Southeast  Level Estimated
04:32AM -8.0318 -61.9192 138° Southeast  Level Estimated
04:33AM -8.1302 -61.8293 138° Southeast  Level Estimated
04:34AM -8.2286 -61.7393 138° Southeast  Level Estimated
04:35AM -8.3270 -61.6493 138° Southeast  Level Estimated
04:36AM -8.4254 -61.5592 138° Southeast  Level Estimated
04:37AM -8.5237 -61.4691 138° Southeast  Level Estimated
04:38AM -8.6220 -61.3789 138° Southeast  Level Estimated
04:39AM -8.7203 -61.2887 138° Southeast  Level Estimated
04:40AM -8.8186 -61.1984 138° Southeast  Level Estimated
04:41AM -8.9168 -61.1081 138° Southeast  Level Estimated
04:42AM -9.0150 -61.0178 138° Southeast  Level Estimated
04:43AM -9.1132 -60.9274 138° Southeast  Level Estimated
04:44AM -9.2114 -60.8369 138° Southeast  Level Estimated
04:45AM -9.3096 -60.7464 138° Southeast  Level Estimated
04:46AM -9.4077 -60.6558 138° Southeast  Level Estimated
04:47AM -9.5058 -60.5652 138° Southeast  Level Estimated
04:48AM -9.6039 -60.4746 138° Southeast  Level Estimated
04:49AM -9.7020 -60.3839 138° Southeast  Level Estimated
04:50AM -9.8000 -60.2931 138° Southeast  Level Estimated
04:51AM -9.8977 -60.2026 138° Southeast  Level Estimated
04:52AM -9.9953 -60.1121 138° Southeast  Level Estimated
04:53AM -10.0929 -60.0215 138° Southeast  Level Estimated
04:54AM -10.1905 -59.9308 138° Southeast  Level Estimated
04:55AM -10.2881 -59.8401 138° Southeast  Level Estimated
04:56AM -10.3856 -59.7493 138° Southeast  Level Estimated
04:57AM -10.4832 -59.6585 138° Southeast  Level Estimated
04:58AM -10.5807 -59.5676 138° Southeast  Level Estimated
04:59AM -10.6781 -59.4767 137° Southeast  Level Estimated
05:00AM -10.7756 -59.3857 137° Southeast  Level Estimated
05:01AM -10.8730 -59.2946 137° Southeast  Level Estimated
05:02AM -10.9704 -59.2035 137° Southeast  Level Estimated
05:03AM -11.0677 -59.1123 137° Southeast  Level Estimated
05:04AM -11.1651 -59.0211 137° Southeast  Level Estimated
05:05AM -11.2624 -58.9298 137° Southeast  Level Estimated
05:06AM -11.3597 -58.8384 137° Southeast  Level Estimated
05:07AM -11.4569 -58.7470 137° Southeast  Level Estimated
05:08AM -11.5541 -58.6555 137° Southeast  Level Estimated
05:09AM -11.6513 -58.5639 137° Southeast  Level Estimated
05:10AM -11.7485 -58.4723 137° Southeast  Level Estimated
05:11AM -11.8456 -58.3806 137° Southeast  Level Estimated
05:12AM -11.9427 -58.2889 137° Southeast  Level Estimated
05:13AM -12.0398 -58.1971 137° Southeast  Level Estimated
05:14AM -12.1369 -58.1052 137° Southeast  Level Estimated
05:15AM -12.2339 -58.0133 137° Southeast  Level Estimated
05:16AM -12.3308 -57.9212 137° Southeast  Level Estimated
05:17AM -12.4278 -57.8292 137° Southeast  Level Estimated
05:18AM -12.5247 -57.7370 137° Southeast  Level Estimated
05:19AM -12.6216 -57.6448 137° Southeast  Level Estimated
05:20AM -12.7185 -57.5525 137° Southeast  Level Estimated
05:21AM -12.8153 -57.4602 137° Southeast  Level Estimated
05:22AM -12.9121 -57.3677 137° Southeast  Level Estimated
05:23AM -13.0089 -57.2752 137° Southeast  Level Estimated
05:24AM -13.1056 -57.1827 137° Southeast  Level Estimated
05:25AM -13.2023 -57.0900 137° Southeast  Level Estimated
05:26AM -13.2990 -56.9973 137° Southeast  Level Estimated
05:27AM -13.3956 -56.9045 137° Southeast  Level Estimated
05:28AM -13.4922 -56.8116 137° Southeast  Level Estimated
05:29AM -13.5887 -56.7187 137° Southeast  Level Estimated
05:30AM -13.6853 -56.6257 137° Southeast  Level Estimated
05:31AM -13.7818 -56.5326 137° Southeast  Level Estimated
05:32AM -13.8782 -56.4394 137° Southeast  Level Estimated
05:33AM -13.9746 -56.3461 137° Southeast  Level Estimated
05:34AM -14.0710 -56.2528 137° Southeast  Level Estimated
05:35AM -14.1674 -56.1594 137° Southeast  Level Estimated
05:36AM -14.2637 -56.0659 137° Southeast  Level Estimated
05:37AM -14.3600 -55.9723 137° Southeast  Level Estimated
05:38AM -14.4562 -55.8787 137° Southeast  Level Estimated
05:39AM -14.5524 -55.7850 137° Southeast  Level Estimated
05:40AM -14.6486 -55.6912 137° Southeast  Level Estimated
05:41AM -14.7447 -55.5973 137° Southeast  Level Estimated
05:42AM -14.8408 -55.5033 137° Southeast  Level Estimated
05:43AM -14.9368 -55.4092 137° Southeast  Level Estimated
05:44AM -15.0329 -55.3151 137° Southeast  Level Estimated
05:45AM -15.1288 -55.2209 137° Southeast  Level Estimated
05:46AM -15.2248 -55.1265 137° Southeast  Level Estimated
05:47AM -15.3207 -55.0322 136° Southeast  Level Estimated
05:48AM -15.4165 -54.9377 136° Southeast  Level Estimated
05:49AM -15.5124 -54.8431 136° Southeast  Level Estimated
05:50AM -15.6081 -54.7484 136° Southeast  Level Estimated
05:51AM -15.7039 -54.6537 136° Southeast  Level Estimated
05:52AM -15.7996 -54.5588 136° Southeast  Level Estimated
05:53AM -15.8953 -54.4639 136° Southeast  Level Estimated
05:54AM -15.9909 -54.3689 136° Southeast  Level Estimated
05:55AM -16.0864 -54.2738 136° Southeast  Level Estimated
05:56AM -16.1820 -54.1786 136° Southeast  Level Estimated
05:57AM -16.2775 -54.0833 136° Southeast  Level Estimated
05:58AM -16.3729 -53.9879 136° Southeast  Level Estimated
05:59AM -16.4683 -53.8924 136° Southeast  Level Estimated
06:00AM -16.5637 -53.7969 136° Southeast  Level Estimated
06:01AM -16.6590 -53.7012 136° Southeast  Level Estimated
06:02AM -16.7542 -53.6054 136° Southeast  Level Estimated
06:03AM -16.8495 -53.5096 136° Southeast  Level Estimated
06:04AM -16.9447 -53.4136 136° Southeast  Level Estimated
06:05AM -17.0398 -53.3176 136° Southeast  Level Estimated
06:06AM -17.1349 -53.2214 136° Southeast  Level Estimated
06:07AM -17.2299 -53.1252 136° Southeast  Level Estimated
06:08AM -17.3249 -53.0288 136° Southeast  Level Estimated
06:09AM -17.4199 -52.9324 136° Southeast  Level Estimated
06:10AM -17.5148 -52.8358 136° Southeast  Level Estimated
06:11AM -17.6097 -52.7392 136° Southeast  Level Estimated
06:12AM -17.7045 -52.6424 136° Southeast  Level Estimated
06:13AM -17.7992 -52.5456 136° Southeast  Level Estimated
06:14AM -17.8940 -52.4486 136° Southeast  Level Estimated
06:15AM -17.9886 -52.3516 136° Southeast  Level Estimated
06:16AM -18.0833 -52.2544 136° Southeast  Level Estimated
06:17AM -18.1778 -52.1571 136° Southeast  Level Estimated
06:18AM -18.2724 -52.0598 136° Southeast  Level Estimated
06:19AM -18.3668 -51.9623 136° Southeast  Level Estimated
06:19AM -19.0730 -50.6170 136° Southeast 480 552 37,000  Level FlightAware
06:19AM -19.1060 -50.5810 134° Southeast 481 554 37,000  Level FlightAware
06:20AM -18.4613 -51.8647 136° Southeast  Level Estimated
06:20AM -19.1830 -50.4960 134° Southeast 480 552 37,000  Level FlightAware
06:21AM -19.2460 -50.4280 134° Southeast 480 552 37,000  Level FlightAware
06:22AM -19.3140 -50.3530 134° Southeast 480 552 37,000  Level FlightAware
06:22AM -19.3820 -50.2780 134° Southeast 479 551 37,000  Level FlightAware
06:23AM -19.4440 -50.2100 134° Southeast 479 551 37,000  Level FlightAware
06:24AM -19.5050 -50.1420 134° Southeast 480 552 37,000  Level FlightAware
06:24AM -19.5630 -50.0790 134° Southeast 480 552 37,000  Level FlightAware
06:25AM -19.6260 -50.0100 134° Southeast 478 550 37,000  Level FlightAware
06:26AM -19.6920 -49.9370 134° Southeast 479 551 37,000  Level FlightAware
06:26AM -19.7420 -49.8830 135° Southeast 478 550 37,000  Level FlightAware
06:27AM -19.8110 -49.8080 134° Southeast 478 550 37,000  Level FlightAware
06:28AM -19.8780 -49.7340 134° Southeast 478 550 37,000  Level FlightAware
06:28AM -19.9400 -49.6670 135° Southeast 478 550 37,000  Level FlightAware
06:29AM -20.0020 -49.5990 134° Southeast 478 550 37,000  Level FlightAware
06:30AM -20.0660 -49.5280 134° Southeast 478 550 37,000  Level FlightAware
06:30AM -20.1330 -49.4540 134° Southeast 478 550 37,000  Level FlightAware
06:31AM -20.1990 -49.3820 134° Southeast 478 550 37,000  Level FlightAware
06:32AM -20.2640 -49.3100 134° Southeast 478 550 37,000  Level FlightAware
06:33AM -20.3250 -49.2420 134° Southeast 477 549 37,000  Level FlightAware
06:33AM -20.3890 -49.1730 135° Southeast 475 547 37,000  Level FlightAware
06:34AM -20.4640 -49.1050 140° Southeast 475 547 37,000  Level FlightAware
06:35AM -20.5300 -49.0440 139° Southeast 474 545 37,000  Level FlightAware
06:35AM -20.6020 -48.9760 139° Southeast 475 547 37,000  Level FlightAware
06:36AM -20.6710 -48.9110 139° Southeast 475 547 37,000  Level FlightAware
06:37AM -20.7360 -48.8480 138° Southeast 474 545 37,000  Level FlightAware
06:37AM -20.8100 -48.7790 139° Southeast 474 545 37,000  Level FlightAware
06:38AM -20.8760 -48.7180 139° Southeast 474 545 37,000  Level FlightAware
06:39AM -20.9420 -48.6560 139° Southeast 473 544 37,000  Level FlightAware
06:40AM -21.0170 -48.5860 139° Southeast 473 544 37,000  Level FlightAware
06:40AM -21.0830 -48.5230 138° Southeast 472 543 37,000  Level FlightAware
06:41AM -21.1550 -48.4550 139° Southeast 471 542 37,000  Level FlightAware
06:42AM -21.2170 -48.3970 139° Southeast 471 542 37,000  Level FlightAware
06:42AM -21.2890 -48.3290 139° Southeast 470 541 37,000  Level FlightAware
06:43AM -21.3620 -48.2600 139° Southeast 470 541 37,000  Level FlightAware
06:44AM -21.4260 -48.1990 138° Southeast 468 539 37,000  Level FlightAware
06:44AM -21.4980 -48.1320 139° Southeast 468 539 37,000  Level FlightAware
06:45AM -21.5630 -48.0700 138° Southeast 466 536 37,000  Level FlightAware
06:46AM -21.6370 -48.0000 139° Southeast 466 536 37,000  Level FlightAware
06:47AM -21.7020 -47.9380 138° Southeast 466 536 37,000  Level FlightAware
06:47AM -21.7630 -47.8790 138° Southeast 466 536 37,000  Level FlightAware
06:48AM -21.8400 -47.8060 139° Southeast 466 536 37,000  Level FlightAware
06:49AM -21.9050 -47.7440 138° Southeast 466 536 37,000 -540 Level FlightAware
06:49AM -21.9600 -47.6910 138° Southeast 462 532 36,400 -1,980 Descending FlightAware
06:50AM -22.0230 -47.6300 138° Southeast 466 536 34,600 -2,880 Descending FlightAware
06:51AM -22.0990 -47.5580 139° Southeast 468 539 32,300 -2,640 Descending FlightAware
06:51AM -22.1610 -47.4980 138° Southeast 458 527 30,900 -2,160 Descending FlightAware
06:52AM -22.2320 -47.4310 139° Southeast 446 513 29,300 -2,220 Descending FlightAware
06:53AM -22.2920 -47.3720 138° Southeast 435 501 27,800 -2,220 Descending FlightAware
06:53AM -22.3530 -47.3150 139° Southeast 427 491 26,400 -2,040 Descending FlightAware
06:54AM -22.4100 -47.2590 138° Southeast 421 484 25,100 -2,040 Descending FlightAware
06:55AM -22.4690 -47.2020 138° Southeast 414 476 23,700 -2,100 Descending FlightAware
06:55AM -22.5250 -47.1480 138° Southeast 408 470 22,300 -2,100 Descending FlightAware
06:56AM -22.5800 -47.1010 142° Southeast 399 459 21,000 -2,040 Descending FlightAware
06:57AM -22.6450 -47.0690 156° South 392 451 19,700 -2,100 Descending FlightAware
06:57AM -22.7210 -47.0370 159° South 385 443 18,100 -2,160 Descending FlightAware
06:58AM -22.7880 -47.0090 159° South 373 429 16,700 -2,040 Descending FlightAware
06:59AM -22.8580 -46.9800 159° South 364 419 15,300 -1,680 Descending FlightAware
06:59AM -22.9190 -46.9540 159° South 349 402 14,400 -1,620 Descending FlightAware
07:00AM -22.9830 -46.9270 159° South 309 356 13,100 -1,920 Descending FlightAware
07:01AM -23.0350 -46.9050 159° South 291 335 11,700 -1,740 Descending FlightAware
07:02AM -23.0890 -46.8820 159° South 287 330 10,700 -1,260 Descending FlightAware
07:02AM -23.1370 -46.8590 156° South 280 322 10,000 -840 Descending FlightAware
07:03AM -23.1680 -46.8410 152° Southeast 258 297 9,800 -600 Descending FlightAware
07:03AM -23.1850 -46.8320 154° Southeast 245 282 9,600 -1,200 Descending FlightAware
07:04AM -23.2140 -46.8170 155° Southeast 237 273 8,900 -1,500 Descending FlightAware
07:04AM -23.2380 -46.8040 154° Southeast 232 267 8,300 -1,440 Descending FlightAware
07:04AM -23.2650 -46.7900 155° Southeast 234 269 7,700 -1,440 Descending FlightAware
07:05AM -23.2930 -46.7750 154° Southeast 242 278 7,000 -1,320 Descending FlightAware
07:05AM -23.3240 -46.7580 153° Southeast 243 280 6,400 -1,140 Descending FlightAware
07:06AM -23.3520 -46.7430 154° Southeast 239 275 5,900 -1,080 Descending FlightAware
07:06AM -23.3770 -46.7300 154° Southeast 237 273 5,500 -1,080 Descending FlightAware
07:07AM -23.3910 -46.7180 142° Southeast 233 268 5,200 -420 Descending FlightAware
07:07AM -23.4120 -46.6940 134° Southeast 236 272 5,200 -180 Level FlightAware
07:07AM -23.4240 -46.6810 135° Southeast 235 270 5,100 -600 Descending FlightAware
07:08AM -23.4460 -46.6580 136° Southeast 214 246 4,800 -300 Descending FlightAware
07:08AM -23.4590 -46.6440 135° Southeast 197 227 4,900 -540 Climbing FlightAware
07:09AM -23.4730 -46.6220 125° Southeast 183 211 4,400 -660 Descending FlightAware
07:09AM -23.4690 -46.6000 79° East 180 207 4,300 -720 Descending FlightAware
07:09AM -23.4630 -46.5770 74° East 175 201 3,800 -1,080 Descending FlightAware
07:10AM -23.4570 -46.5550 73° East 153 176 3,400 -960 Descending FlightAware
07:10AM -23.4530 -46.5380 76° East 136 157 3,000 -720 Descending FlightAware
07:11AM -23.4480 -46.5200 73° East 139 160 2,800 -480 Descending FlightAware
07:11AM -23.4460 -46.5130 73° East 139 160 2,700 -840 Descending FlightAware
07:11AM -23.4420 -46.4980 74° East 142 163 2,300 -660 Descending FlightAware
07:12AM -23.4400 -46.4920 70° East 140 161 2,200 -180 Descending FlightAware
07:12AM -23.4360 -46.4770 74° East 140 161 2,200  Level FlightAware
07:15AM -23.4280 -46.4620 60° Northeast 12 14 -720 Descending FlightAware
07:16AM -23.4270 -46.4620 360° North 12 14  Level FlightAware
07:16AM -23.4270 -46.4640 270° West 11 13  Level FlightAware
07:17AM -23.4280 -46.4660 241° Southwest 6 7  Level FlightAware
07:17AM -23.4280 -46.4670 270° West 7 8  Level FlightAware
07:18AM -23.4280 -46.4680 270° West 9 10  Level FlightAware
07:19AM -23.4290 -46.4690 223° Southwest 13 15  Level FlightAware
07:19AM -23.4290 -46.4710 270° West 15 17  Level FlightAware
07:20AM -23.4300 -46.4730 241° Southwest 14 16  Level FlightAware
07:20AM -23.4300 -46.4750 270° West 14 16  Level FlightAware
07:21AM -23.4310 -46.4770 241° Southwest 3 3  Level FlightAware
07:23AM -23.4310 -46.4780 270° West 7 8  Level FlightAware
07:24AM -23.4310 -46.4790 270° West 9 10  Level FlightAware
07:24AM -23.4320 -46.4800 223° Southwest 11 13  Level FlightAware
07:25AM -23.4310 -46.4800 360° North 6 7  Level FlightAware
07:26AM -23.4310 -46.4790 90° East 4 5  Level FlightAware
07:31AM -23.4300 -46.4780 43° Northeast 8 9  Level FlightAware
07:32AM -23.4290 -46.4780 360° North 8 9  Level FlightAware
07:33AM -23.4280 -46.4790 317° Northwest 9 10  Level FlightAware